sensor_id;sensor_type;location;lat;lon;timestamp;pressure;altitude;pressure_sealevel;temperature;humidity
74045;BME280;62389;51.412;5.436;2024-03-06T00:00:22;101639.75;;;5.57;100.00
74045;BME280;62389;51.412;5.436;2024-03-06T00:02:48;101640.66;;;5.54;100.00
74045;BME280;62389;51.412;5.436;2024-03-06T00:05:13;101636.34;;;5.52;100.00
74045;BME280;62389;51.412;5.436;2024-03-06T00:07:38;101642.44;;;5.46;100.00
74045;BME280;62389;51.412;5.436;2024-03-06T00:10:04;101645.13;;;5.40;100.00
74045;BME280;62389;51.412;5.436;2024-03-06T00:12:32;101651.25;;;5.33;100.00
74045;BME280;62389;51.412;5.436;2024-03-06T00:14:58;101651.28;;;5.27;100.00
74045;BME280;62389;51.412;5.436;2024-03-06T00:17:23;101658.22;;;5.25;100.00
74045;BME280;62389;51.412;5.436;2024-03-06T00:19:48;101651.34;;;5.20;100.00
74045;BME280;62389;51.412;5.436;2024-03-06T00:22:14;101654.81;;;5.19;100.00
74045;BME280;62389;51.412;5.436;2024-03-06T00:24:39;101653.09;;;5.18;100.00
74045;BME280;62389;51.412;5.436;2024-03-06T00:27:04;101659.13;;;5.19;100.00
74045;BME280;62389;51.412;5.436;2024-03-06T00:29:31;101661.75;;;5.17;100.00
74045;BME280;62389;51.412;5.436;2024-03-06T00:31:56;101662.63;;;5.12;100.00
74045;BME280;62389;51.412;5.436;2024-03-06T00:34:21;101672.19;;;5.05;100.00
74045;BME280;62389;51.412;5.436;2024-03-06T00:36:47;101682.63;;;4.99;100.00
74045;BME280;62389;51.412;5.436;2024-03-06T00:39:12;101673.13;;;4.98;100.00
74045;BME280;62389;51.412;5.436;2024-03-06T00:41:40;101674.88;;;4.98;100.00
74045;BME280;62389;51.412;5.436;2024-03-06T00:44:07;101670.56;;;4.95;100.00
74045;BME280;62389;51.412;5.436;2024-03-06T00:46:32;101677.50;;;4.93;100.00
74045;BME280;62389;51.412;5.436;2024-03-06T00:48:57;101672.31;;;4.90;100.00
74045;BME280;62389;51.412;5.436;2024-03-06T00:51:23;101671.47;;;4.89;100.00
74045;BME280;62389;51.412;5.436;2024-03-06T00:53:49;101674.06;;;4.88;100.00
74045;BME280;62389;51.412;5.436;2024-03-06T00:56:14;101673.22;;;4.84;100.00
74045;BME280;62389;51.412;5.436;2024-03-06T00:58:39;101666.34;;;4.80;100.00
74045;BME280;62389;51.412;5.436;2024-03-06T01:01:05;101668.06;;;4.77;100.00
74045;BME280;62389;51.412;5.436;2024-03-06T01:03:30;101678.47;;;4.74;100.00
74045;BME280;62389;51.412;5.436;2024-03-06T01:05:56;101682.78;;;4.72;100.00
74045;BME280;62389;51.412;5.436;2024-03-06T01:08:22;101686.28;;;4.69;100.00
74045;BME280;62389;51.412;5.436;2024-03-06T01:10:52;101688.91;;;4.60;100.00
74045;BME280;62389;51.412;5.436;2024-03-06T01:13:19;101688.09;;;4.53;100.00
74045;BME280;62389;51.412;5.436;2024-03-06T01:15:44;101690.72;;;4.49;100.00
74045;BME280;62389;51.412;5.436;2024-03-06T01:18:10;101687.25;;;4.50;100.00
74045;BME280;62389;51.412;5.436;2024-03-06T01:20:35;101688.09;;;4.50;100.00
74045;BME280;62389;51.412;5.436;2024-03-06T01:23:01;101693.28;;;4.50;100.00
74045;BME280;62389;51.412;5.436;2024-03-06T01:25:26;101687.25;;;4.48;100.00
74045;BME280;62389;51.412;5.436;2024-03-06T01:27:52;101695.00;;;4.50;100.00
74045;BME280;62389;51.412;5.436;2024-03-06T01:30:17;101697.59;;;4.50;100.00
74045;BME280;62389;51.412;5.436;2024-03-06T01:32:43;101694.16;;;4.46;100.00
74045;BME280;62389;51.412;5.436;2024-03-06T01:35:08;101697.63;;;4.45;100.00
74045;BME280;62389;51.412;5.436;2024-03-06T01:37:34;101697.66;;;4.40;100.00
74045;BME280;62389;51.412;5.436;2024-03-06T01:40:00;101699.41;;;4.34;100.00
74045;BME280;62389;51.412;5.436;2024-03-06T01:42:25;101697.69;;;4.30;100.00
74045;BME280;62389;51.412;5.436;2024-03-06T01:44:51;101698.56;;;4.29;100.00
74045;BME280;62389;51.412;5.436;2024-03-06T01:47:16;101702.00;;;4.29;100.00
74045;BME280;62389;51.412;5.436;2024-03-06T01:49:42;101703.75;;;4.29;100.00
74045;BME280;62389;51.412;5.436;2024-03-06T01:52:09;101713.25;;;4.25;100.00
74045;BME280;62389;51.412;5.436;2024-03-06T01:54:37;101715.00;;;4.20;100.00
74045;BME280;62389;51.412;5.436;2024-03-06T01:57:04;101704.69;;;4.12;100.00
74045;BME280;62389;51.412;5.436;2024-03-06T01:59:31;101708.97;;;4.10;100.00
74045;BME280;62389;51.412;5.436;2024-03-06T02:01:57;101714.16;;;4.10;100.00
74045;BME280;62389;51.412;5.436;2024-03-06T02:04:24;101715.91;;;4.08;100.00
74045;BME280;62389;51.412;5.436;2024-03-06T02:06:51;101717.63;;;4.08;100.00
74045;BME280;62389;51.412;5.436;2024-03-06T02:09:17;101726.25;;;4.05;100.00
74045;BME280;62389;51.412;5.436;2024-03-06T02:11:44;101735.78;;;4.02;100.00
74045;BME280;62389;51.412;5.436;2024-03-06T02:14:09;101731.44;;;4.01;100.00
74045;BME280;62389;51.412;5.436;2024-03-06T02:16:38;101737.50;;;3.98;100.00
74045;BME280;62389;51.412;5.436;2024-03-06T02:19:06;101732.34;;;3.94;100.00
74045;BME280;62389;51.412;5.436;2024-03-06T02:21:32;101735.78;;;3.93;100.00
74045;BME280;62389;51.412;5.436;2024-03-06T02:23:57;101743.53;;;3.91;100.00
74045;BME280;62389;51.412;5.436;2024-03-06T02:26:23;101741.84;;;3.88;100.00
74045;BME280;62389;51.412;5.436;2024-03-06T02:28:53;101745.28;;;3.86;100.00
74045;BME280;62389;51.412;5.436;2024-03-06T02:31:20;101750.47;;;3.83;100.00
74045;BME280;62389;51.412;5.436;2024-03-06T02:33:47;101745.28;;;3.80;100.00
74045;BME280;62389;51.412;5.436;2024-03-06T02:36:17;101752.19;;;3.78;100.00
74045;BME280;62389;51.412;5.436;2024-03-06T02:38:43;101754.78;;;3.75;100.00
74045;BME280;62389;51.412;5.436;2024-03-06T02:41:09;101752.19;;;3.73;100.00
74045;BME280;62389;51.412;5.436;2024-03-06T02:43:34;101749.59;;;3.76;100.00
74045;BME280;62389;51.412;5.436;2024-03-06T02:46:00;101746.16;;;3.77;100.00
74045;BME280;62389;51.412;5.436;2024-03-06T02:48:25;101747.03;;;3.78;100.00
74045;BME280;62389;51.412;5.436;2024-03-06T02:50:51;101740.97;;;3.79;100.00
74045;BME280;62389;51.412;5.436;2024-03-06T02:53:16;101745.31;;;3.78;100.00
74045;BME280;62389;51.412;5.436;2024-03-06T02:55:42;101737.53;;;3.78;100.00
74045;BME280;62389;51.412;5.436;2024-03-06T02:58:07;101737.53;;;3.77;100.00
74045;BME280;62389;51.412;5.436;2024-03-06T03:00:32;101734.97;;;3.77;100.00
74045;BME280;62389;51.412;5.436;2024-03-06T03:02:58;101737.53;;;3.77;100.00
74045;BME280;62389;51.412;5.436;2024-03-06T03:05:23;101744.44;;;3.79;100.00
74045;BME280;62389;51.412;5.436;2024-03-06T03:07:49;101743.56;;;3.79;100.00
74045;BME280;62389;51.412;5.436;2024-03-06T03:10:15;101748.75;;;3.74;100.00
74045;BME280;62389;51.412;5.436;2024-03-06T03:12:40;101741.00;;;3.73;100.00
74045;BME280;62389;51.412;5.436;2024-03-06T03:15:06;101740.97;;;3.71;100.00
74045;BME280;62389;51.412;5.436;2024-03-06T03:17:32;101749.63;;;3.64;100.00
74045;BME280;62389;51.412;5.436;2024-03-06T03:19:59;101748.75;;;3.59;100.00
74045;BME280;62389;51.412;5.436;2024-03-06T03:22:24;101753.09;;;3.61;100.00
74045;BME280;62389;51.412;5.436;2024-03-06T03:24:49;101750.50;;;3.68;100.00
74045;BME280;62389;51.412;5.436;2024-03-06T03:27:15;101749.63;;;3.72;100.00
74045;BME280;62389;51.412;5.436;2024-03-06T03:29:40;101749.63;;;3.73;100.00
74045;BME280;62389;51.412;5.436;2024-03-06T03:32:06;101753.06;;;3.74;100.00
74045;BME280;62389;51.412;5.436;2024-03-06T03:34:34;101754.78;;;3.78;100.00
74045;BME280;62389;51.412;5.436;2024-03-06T03:36:59;101748.75;;;3.79;100.00
74045;BME280;62389;51.412;5.436;2024-03-06T03:39:24;101753.03;;;3.80;100.00
74045;BME280;62389;51.412;5.436;2024-03-06T03:41:50;101750.44;;;3.81;100.00
74045;BME280;62389;51.412;5.436;2024-03-06T03:44:17;101753.03;;;3.81;100.00
74045;BME280;62389;51.412;5.436;2024-03-06T03:46:42;101762.53;;;3.79;100.00
74045;BME280;62389;51.412;5.436;2024-03-06T03:49:08;101761.69;;;3.77;100.00
74045;BME280;62389;51.412;5.436;2024-03-06T03:51:35;101765.13;;;3.70;100.00
74045;BME280;62389;51.412;5.436;2024-03-06T03:54:01;101763.44;;;3.61;100.00
74045;BME280;62389;51.412;5.436;2024-03-06T03:56:26;101754.81;;;3.58;100.00
74045;BME280;62389;51.412;5.436;2024-03-06T03:58:52;101765.13;;;3.61;100.00
74045;BME280;62389;51.412;5.436;2024-03-06T04:01:18;101762.53;;;3.61;100.00
74045;BME280;62389;51.412;5.436;2024-03-06T04:03:43;101760.84;;;3.61;100.00
74045;BME280;62389;51.412;5.436;2024-03-06T04:06:10;101759.97;;;3.58;100.00
74045;BME280;62389;51.412;5.436;2024-03-06T04:08:35;101764.28;;;3.54;100.00
74045;BME280;62389;51.412;5.436;2024-03-06T04:11:01;101766.00;;;3.52;100.00
74045;BME280;62389;51.412;5.436;2024-03-06T04:13:26;101759.09;;;3.48;100.00
74045;BME280;62389;51.412;5.436;2024-03-06T04:15:51;101770.31;;;3.46;100.00
74045;BME280;62389;51.412;5.436;2024-03-06T04:18:17;101774.63;;;3.42;100.00
74045;BME280;62389;51.412;5.436;2024-03-06T04:20:42;101776.34;;;3.42;100.00
74045;BME280;62389;51.412;5.436;2024-03-06T04:23:08;101780.63;;;3.41;100.00
74045;BME280;62389;51.412;5.436;2024-03-06T04:25:33;101773.75;;;3.38;100.00
74045;BME280;62389;51.412;5.436;2024-03-06T04:27:58;101779.78;;;3.34;100.00
74045;BME280;62389;51.412;5.436;2024-03-06T04:30:24;101779.78;;;3.27;100.00
74045;BME280;62389;51.412;5.436;2024-03-06T04:32:50;101778.91;;;3.17;100.00
74045;BME280;62389;51.412;5.436;2024-03-06T04:35:15;101784.03;;;3.11;100.00
74045;BME280;62389;51.412;5.436;2024-03-06T04:37:41;101795.25;;;3.08;100.00
74045;BME280;62389;51.412;5.436;2024-03-06T04:40:07;101797.84;;;3.08;100.00
74045;BME280;62389;51.412;5.436;2024-03-06T04:42:34;101795.25;;;3.07;100.00
74045;BME280;62389;51.412;5.436;2024-03-06T04:45:02;101797.84;;;3.07;100.00
74045;BME280;62389;51.412;5.436;2024-03-06T04:47:28;101803.88;;;3.07;100.00
74045;BME280;62389;51.412;5.436;2024-03-06T04:49:53;101813.34;;;3.07;100.00
74045;BME280;62389;51.412;5.436;2024-03-06T04:52:19;101815.94;;;3.07;100.00
74045;BME280;62389;51.412;5.436;2024-03-06T04:54:44;101819.34;;;3.04;100.00
74045;BME280;62389;51.412;5.436;2024-03-06T04:57:10;101825.41;;;3.03;100.00
74045;BME280;62389;51.412;5.436;2024-03-06T04:59:35;101829.72;;;3.01;100.00
74045;BME280;62389;51.412;5.436;2024-03-06T05:02:01;101832.25;;;2.92;100.00
74045;BME280;62389;51.412;5.436;2024-03-06T05:04:28;101833.06;;;2.82;100.00
74045;BME280;62389;51.412;5.436;2024-03-06T05:06:53;101839.06;;;2.75;100.00
74045;BME280;62389;51.412;5.436;2024-03-06T05:09:19;101841.63;;;2.67;100.00
74045;BME280;62389;51.412;5.436;2024-03-06T05:11:44;101848.47;;;2.64;100.00
74045;BME280;62389;51.412;5.436;2024-03-06T05:14:09;101844.19;;;2.64;100.00
74045;BME280;62389;51.412;5.436;2024-03-06T05:16:35;101846.75;;;2.63;100.00
74045;BME280;62389;51.412;5.436;2024-03-06T05:19:00;101853.66;;;2.64;100.00
74045;BME280;62389;51.412;5.436;2024-03-06T05:21:26;101853.66;;;2.64;100.00
74045;BME280;62389;51.412;5.436;2024-03-06T05:23:52;101851.94;;;2.64;100.00
74045;BME280;62389;51.412;5.436;2024-03-06T05:26:17;101853.63;;;2.60;100.00
74045;BME280;62389;51.412;5.436;2024-03-06T05:28:43;101861.38;;;2.60;100.00
74045;BME280;62389;51.412;5.436;2024-03-06T05:31:19;101863.06;;;2.55;100.00
74045;BME280;62389;51.412;5.436;2024-03-06T05:33:47;101858.75;;;2.54;100.00
74045;BME280;62389;51.412;5.436;2024-03-06T05:36:12;101865.69;;;2.58;100.00
74045;BME280;62389;51.412;5.436;2024-03-06T05:38:41;101863.94;;;2.57;100.00
74045;BME280;62389;51.412;5.436;2024-03-06T05:41:07;101871.66;;;2.53;100.00
74045;BME280;62389;51.412;5.436;2024-03-06T05:43:33;101876.81;;;2.47;100.00
74045;BME280;62389;51.412;5.436;2024-03-06T05:45:59;101873.34;;;2.42;100.00
74045;BME280;62389;51.412;5.436;2024-03-06T05:48:25;101875.03;;;2.38;100.00
74045;BME280;62389;51.412;5.436;2024-03-06T05:50:51;101881.03;;;2.40;100.00
74045;BME280;62389;51.412;5.436;2024-03-06T05:53:16;101887.94;;;2.40;100.00
74045;BME280;62389;51.412;5.436;2024-03-06T05:55:41;101893.09;;;2.37;100.00
74045;BME280;62389;51.412;5.436;2024-03-06T05:58:07;101896.53;;;2.37;100.00
74045;BME280;62389;51.412;5.436;2024-03-06T06:00:32;101906.88;;;2.40;100.00
74045;BME280;62389;51.412;5.436;2024-03-06T06:02:58;101912.94;;;2.44;100.00
74045;BME280;62389;51.412;5.436;2024-03-06T06:05:24;101915.50;;;2.45;100.00
74045;BME280;62389;51.412;5.436;2024-03-06T06:07:50;101916.41;;;2.47;100.00
74045;BME280;62389;51.412;5.436;2024-03-06T06:10:15;101909.56;;;2.52;100.00
74045;BME280;62389;51.412;5.436;2024-03-06T06:12:41;101919.91;;;2.57;100.00
74045;BME280;62389;51.412;5.436;2024-03-06T06:15:08;101907.84;;;2.59;100.00
74045;BME280;62389;51.412;5.436;2024-03-06T06:17:33;101915.63;;;2.62;100.00
74045;BME280;62389;51.412;5.436;2024-03-06T06:19:59;101921.66;;;2.63;100.00
74045;BME280;62389;51.412;5.436;2024-03-06T06:22:27;101919.09;;;2.63;100.00
74045;BME280;62389;51.412;5.436;2024-03-06T06:24:52;101922.53;;;2.63;100.00
74045;BME280;62389;51.412;5.436;2024-03-06T06:27:20;101925.97;;;2.65;100.00
74045;BME280;62389;51.412;5.436;2024-03-06T06:29:45;101935.44;;;2.62;100.00
74045;BME280;62389;51.412;5.436;2024-03-06T06:32:10;101938.03;;;2.62;100.00
74045;BME280;62389;51.412;5.436;2024-03-06T06:34:36;101928.56;;;2.65;100.00
74045;BME280;62389;51.412;5.436;2024-03-06T06:37:01;101937.16;;;2.66;100.00
74045;BME280;62389;51.412;5.436;2024-03-06T06:39:27;101943.19;;;2.65;100.00
74045;BME280;62389;51.412;5.436;2024-03-06T06:41:52;101950.09;;;2.66;100.00
74045;BME280;62389;51.412;5.436;2024-03-06T06:44:18;101952.69;;;2.69;100.00
74045;BME280;62389;51.412;5.436;2024-03-06T06:46:43;101958.75;;;2.72;100.00
74045;BME280;62389;51.412;5.436;2024-03-06T06:49:08;101957.91;;;2.75;100.00
74045;BME280;62389;51.412;5.436;2024-03-06T06:51:34;101956.25;;;2.83;100.00
74045;BME280;62389;51.412;5.436;2024-03-06T06:54:00;101953.72;;;2.92;100.00
74045;BME280;62389;51.412;5.436;2024-03-06T06:56:26;101960.66;;;3.02;100.00
74045;BME280;62389;51.412;5.436;2024-03-06T06:58:51;101960.72;;;3.13;100.00
74045;BME280;62389;51.412;5.436;2024-03-06T07:01:17;101969.38;;;3.23;100.00
74045;BME280;62389;51.412;5.436;2024-03-06T07:03:42;101969.41;;;3.29;100.00
74045;BME280;62389;51.412;5.436;2024-03-06T07:06:08;101972.00;;;3.33;100.00
74045;BME280;62389;51.412;5.436;2024-03-06T07:08:33;101969.44;;;3.38;100.00
74045;BME280;62389;51.412;5.436;2024-03-06T07:10:59;101978.94;;;3.45;100.00
74045;BME280;62389;51.412;5.436;2024-03-06T07:13:24;101982.44;;;3.53;100.00
74045;BME280;62389;51.412;5.436;2024-03-06T07:15:49;101987.63;;;3.61;100.00
74045;BME280;62389;51.412;5.436;2024-03-06T07:18:15;101983.34;;;3.74;100.00
74045;BME280;62389;51.412;5.436;2024-03-06T07:20:40;101992.00;;;3.83;100.00
74045;BME280;62389;51.412;5.436;2024-03-06T07:23:06;101990.28;;;3.90;100.00
74045;BME280;62389;51.412;5.436;2024-03-06T07:25:31;101993.75;;;3.95;100.00
74045;BME280;62389;51.412;5.436;2024-03-06T07:27:57;102001.53;;;4.01;100.00
74045;BME280;62389;51.412;5.436;2024-03-06T07:30:22;101992.06;;;4.03;100.00
74045;BME280;62389;51.412;5.436;2024-03-06T07:32:48;101998.97;;;4.12;100.00
74045;BME280;62389;51.412;5.436;2024-03-06T07:35:13;101996.41;;;4.29;100.00
74045;BME280;62389;51.412;5.436;2024-03-06T07:37:39;102001.59;;;4.44;100.00
74045;BME280;62389;51.412;5.436;2024-03-06T07:40:06;102002.47;;;4.52;100.00
74045;BME280;62389;51.412;5.436;2024-03-06T07:42:32;102008.50;;;4.59;100.00
74045;BME280;62389;51.412;5.436;2024-03-06T07:44:58;102005.88;;;4.66;100.00
74045;BME280;62389;51.412;5.436;2024-03-06T07:47:24;102016.28;;;4.73;100.00
74045;BME280;62389;51.412;5.436;2024-03-06T07:49:49;102010.19;;;4.77;100.00
74045;BME280;62389;51.412;5.436;2024-03-06T07:52:15;102017.13;;;4.78;100.00
74045;BME280;62389;51.412;5.436;2024-03-06T07:54:41;102008.50;;;4.83;100.00
74045;BME280;62389;51.412;5.436;2024-03-06T07:57:06;102019.66;;;5.22;100.00
74045;BME280;62389;51.412;5.436;2024-03-06T07:59:32;102015.91;;;5.86;100.00
74045;BME280;62389;51.412;5.436;2024-03-06T08:01:57;102026.75;;;6.55;100.00
74045;BME280;62389;51.412;5.436;2024-03-06T08:04:23;102021.81;;;7.17;100.00
74045;BME280;62389;51.412;5.436;2024-03-06T08:06:48;102015.84;;;7.81;100.00
74045;BME280;62389;51.412;5.436;2024-03-06T08:09:14;102025.50;;;8.35;100.00
74045;BME280;62389;51.412;5.436;2024-03-06T08:11:42;102027.00;;;8.51;100.00
74045;BME280;62389;51.412;5.436;2024-03-06T08:14:07;102031.03;;;8.70;100.00
74045;BME280;62389;51.412;5.436;2024-03-06T08:16:33;102026.97;;;9.05;100.00
74045;BME280;62389;51.412;5.436;2024-03-06T08:18:59;102028.91;;;9.39;100.00
74045;BME280;62389;51.412;5.436;2024-03-06T08:21:25;102030.44;;;9.50;100.00
74045;BME280;62389;51.412;5.436;2024-03-06T08:23:50;102034.31;;;9.74;100.00
74045;BME280;62389;51.412;5.436;2024-03-06T08:26:16;102034.72;;;10.35;100.00
74045;BME280;62389;51.412;5.436;2024-03-06T08:28:41;102043.69;;;10.95;96.79
74045;BME280;62389;51.412;5.436;2024-03-06T08:31:07;102041.06;;;11.58;92.96
74045;BME280;62389;51.412;5.436;2024-03-06T08:33:33;102041.44;;;12.33;90.17
74045;BME280;62389;51.412;5.436;2024-03-06T08:35:59;102040.56;;;13.12;84.73
74045;BME280;62389;51.412;5.436;2024-03-06T08:38:24;102041.31;;;13.88;79.74
74045;BME280;62389;51.412;5.436;2024-03-06T08:40:50;102034.53;;;14.90;77.13
74045;BME280;62389;51.412;5.436;2024-03-06T08:43:16;102039.88;;;15.88;70.60
74045;BME280;62389;51.412;5.436;2024-03-06T08:45:42;102042.06;;;16.69;67.30
74045;BME280;62389;51.412;5.436;2024-03-06T08:48:08;102039.63;;;17.67;65.06
74045;BME280;62389;51.412;5.436;2024-03-06T08:50:34;102046.97;;;18.41;61.11
74045;BME280;62389;51.412;5.436;2024-03-06T08:52:59;102049.84;;;19.12;57.26
74045;BME280;62389;51.412;5.436;2024-03-06T08:55:27;102051.03;;;18.78;55.99
74045;BME280;62389;51.412;5.436;2024-03-06T08:57:53;102058.53;;;17.77;59.97
74045;BME280;62389;51.412;5.436;2024-03-06T09:00:19;102061.13;;;17.11;62.18
74045;BME280;62389;51.412;5.436;2024-03-06T09:02:44;102062.78;;;17.13;62.46
74045;BME280;62389;51.412;5.436;2024-03-06T09:05:10;102061.72;;;17.99;58.77
74045;BME280;62389;51.412;5.436;2024-03-06T09:07:38;102065.19;;;18.31;57.71
74045;BME280;62389;51.412;5.436;2024-03-06T09:10:12;102062.16;;;18.07;56.88
74045;BME280;62389;51.412;5.436;2024-03-06T09:12:38;102074.03;;;17.34;58.31
74045;BME280;62389;51.412;5.436;2024-03-06T09:15:04;102074.72;;;17.38;59.17
74045;BME280;62389;51.412;5.436;2024-03-06T09:17:32;102073.97;;;17.51;60.18
74045;BME280;62389;51.412;5.436;2024-03-06T09:19:58;102075.69;;;17.02;59.83
74045;BME280;62389;51.412;5.436;2024-03-06T09:22:23;102077.94;;;16.01;59.83
74045;BME280;62389;51.412;5.436;2024-03-06T09:24:49;102084.00;;;15.04;64.24
74045;BME280;62389;51.412;5.436;2024-03-06T09:27:15;102081.25;;;14.21;67.25
74045;BME280;62389;51.412;5.436;2024-03-06T09:29:42;102083.53;;;13.60;71.25
74045;BME280;62389;51.412;5.436;2024-03-06T09:32:08;102095.66;;;13.14;72.65
74045;BME280;62389;51.412;5.436;2024-03-06T09:34:33;102088.94;;;12.80;74.44
74045;BME280;62389;51.412;5.436;2024-03-06T09:36:59;102092.28;;;12.57;76.79
74045;BME280;62389;51.412;5.436;2024-03-06T09:39:24;102094.59;;;12.40;76.36
74045;BME280;62389;51.412;5.436;2024-03-06T09:41:50;102095.50;;;12.09;75.83
74045;BME280;62389;51.412;5.436;2024-03-06T09:44:16;102094.84;;;12.03;80.36
74045;BME280;62389;51.412;5.436;2024-03-06T09:46:46;102097.97;;;12.15;79.72
74045;BME280;62389;51.412;5.436;2024-03-06T09:49:13;102106.13;;;12.34;79.16
74045;BME280;62389;51.412;5.436;2024-03-06T09:51:48;102104.53;;;12.30;79.72
74045;BME280;62389;51.412;5.436;2024-03-06T09:54:19;102105.53;;;12.25;80.71
74045;BME280;62389;51.412;5.436;2024-03-06T09:56:46;102110.06;;;12.19;79.73
74045;BME280;62389;51.412;5.436;2024-03-06T09:59:11;102117.09;;;12.19;83.12
74045;BME280;62389;51.412;5.436;2024-03-06T10:01:53;102114.19;;;12.28;82.11
74045;BME280;62389;51.412;5.436;2024-03-06T10:04:26;102118.38;;;12.34;81.54
74045;BME280;62389;51.412;5.436;2024-03-06T10:06:59;102116.72;;;12.31;81.81
74045;BME280;62389;51.412;5.436;2024-03-06T10:09:25;102124.63;;;12.30;76.66
74045;BME280;62389;51.412;5.436;2024-03-06T10:11:51;102120.78;;;12.41;82.46
74045;BME280;62389;51.412;5.436;2024-03-06T10:14:22;102120.16;;;12.61;78.61
74045;BME280;62389;51.412;5.436;2024-03-06T10:16:55;102125.34;;;12.63;78.89
74045;BME280;62389;51.412;5.436;2024-03-06T10:19:25;102118.03;;;12.73;80.11
74045;BME280;62389;51.412;5.436;2024-03-06T10:21:53;102128.34;;;12.79;76.37
74045;BME280;62389;51.412;5.436;2024-03-06T10:24:19;102126.22;;;12.63;78.03
74045;BME280;62389;51.412;5.436;2024-03-06T10:26:45;102134.44;;;12.53;82.40
74045;BME280;62389;51.412;5.436;2024-03-06T10:29:10;102126.38;;;12.29;80.16
74045;BME280;62389;51.412;5.436;2024-03-06T10:31:38;102126.97;;;12.11;79.98
74045;BME280;62389;51.412;5.436;2024-03-06T10:34:04;102126.72;;;11.89;80.22
74045;BME280;62389;51.412;5.436;2024-03-06T10:36:32;102127.34;;;11.64;80.63
74045;BME280;62389;51.412;5.436;2024-03-06T10:38:59;102133.38;;;11.68;86.13
74045;BME280;62389;51.412;5.436;2024-03-06T10:41:28;102123.63;;;12.06;81.08
74045;BME280;62389;51.412;5.436;2024-03-06T10:43:59;102127.25;;;12.58;81.01
74045;BME280;62389;51.412;5.436;2024-03-06T10:46:27;102126.31;;;13.13;76.12
74045;BME280;62389;51.412;5.436;2024-03-06T10:48:54;102123.63;;;13.66;74.96
74045;BME280;62389;51.412;5.436;2024-03-06T10:51:24;102121.50;;;14.23;72.30
74045;BME280;62389;51.412;5.436;2024-03-06T10:53:51;102123.47;;;14.40;71.42
74045;BME280;62389;51.412;5.436;2024-03-06T10:56:20;102123.91;;;14.53;69.14
74045;BME280;62389;51.412;5.436;2024-03-06T10:58:47;102134.00;;;14.40;69.01
74045;BME280;62389;51.412;5.436;2024-03-06T11:01:16;102130.41;;;13.97;65.64
74045;BME280;62389;51.412;5.436;2024-03-06T11:03:42;102130.50;;;13.70;65.78
74045;BME280;62389;51.412;5.436;2024-03-06T11:06:07;102124.59;;;13.39;66.99
74045;BME280;62389;51.412;5.436;2024-03-06T11:08:33;102122.66;;;12.92;66.06
74045;BME280;62389;51.412;5.436;2024-03-06T11:11:19;102129.25;;;12.50;69.12
74045;BME280;62389;51.412;5.436;2024-03-06T11:13:45;102127.25;;;12.30;72.65
74045;BME280;62389;51.412;5.436;2024-03-06T11:16:11;102132.06;;;12.45;70.80
74045;BME280;62389;51.412;5.436;2024-03-06T11:23:27;102127.28;;;13.37;71.39
74045;BME280;62389;51.412;5.436;2024-03-06T11:28:19;102138.25;;;13.73;65.04
74045;BME280;62389;51.412;5.436;2024-03-06T11:30:45;102138.56;;;13.89;64.69
74045;BME280;62389;51.412;5.436;2024-03-06T11:33:12;102138.41;;;14.17;65.85
74045;BME280;62389;51.412;5.436;2024-03-06T11:35:41;102139.59;;;14.32;65.26
74045;BME280;62389;51.412;5.436;2024-03-06T11:38:09;102135.78;;;14.39;65.69
74045;BME280;62389;51.412;5.436;2024-03-06T11:40:48;102145.38;;;14.40;65.34
74045;BME280;62389;51.412;5.436;2024-03-06T11:43:26;102135.78;;;14.39;64.59
74045;BME280;62389;51.412;5.436;2024-03-06T11:45:52;102146.22;;;14.19;62.93
74045;BME280;62389;51.412;5.436;2024-03-06T11:48:18;102149.94;;;13.90;62.89
74045;BME280;62389;51.412;5.436;2024-03-06T11:50:45;102147.81;;;13.76;63.30
74045;BME280;62389;51.412;5.436;2024-03-06T11:53:12;102147.13;;;13.71;65.44
74045;BME280;62389;51.412;5.436;2024-03-06T11:55:38;102151.19;;;13.55;63.11
74045;BME280;62389;51.412;5.436;2024-03-06T11:58:04;102153.78;;;13.31;63.28
74045;BME280;62389;51.412;5.436;2024-03-06T12:00:30;102150.25;;;13.06;63.83
74045;BME280;62389;51.412;5.436;2024-03-06T12:02:56;102150.19;;;12.79;65.32
74045;BME280;62389;51.412;5.436;2024-03-06T12:05:22;102146.88;;;12.74;67.51
74045;BME280;62389;51.412;5.436;2024-03-06T12:07:49;102153.13;;;12.70;66.97
74045;BME280;62389;51.412;5.436;2024-03-06T12:10:18;102147.88;;;12.70;67.34
74045;BME280;62389;51.412;5.436;2024-03-06T12:12:44;102147.69;;;12.76;65.41
74045;BME280;62389;51.412;5.436;2024-03-06T12:15:11;102147.56;;;12.79;66.51
74045;BME280;62389;51.412;5.436;2024-03-06T12:17:44;102147.56;;;12.79;67.80
74045;BME280;62389;51.412;5.436;2024-03-06T12:20:12;102157.50;;;12.69;65.38
74045;BME280;62389;51.412;5.436;2024-03-06T12:22:51;102161.38;;;12.58;67.98
74045;BME280;62389;51.412;5.436;2024-03-06T12:25:25;102153.72;;;12.52;70.50
74045;BME280;62389;51.412;5.436;2024-03-06T12:27:52;102151.22;;;12.47;70.43
74045;BME280;62389;51.412;5.436;2024-03-06T12:30:19;102159.16;;;12.46;68.43
74045;BME280;62389;51.412;5.436;2024-03-06T12:32:56;102154.06;;;12.39;68.65
74045;BME280;62389;51.412;5.436;2024-03-06T12:35:28;102157.13;;;12.26;66.93
74045;BME280;62389;51.412;5.436;2024-03-06T12:37:53;102157.56;;;12.10;66.99
74045;BME280;62389;51.412;5.436;2024-03-06T12:40:19;102156.06;;;12.02;70.47
74045;BME280;62389;51.412;5.436;2024-03-06T12:42:45;102151.00;;;11.96;66.88
74045;BME280;62389;51.412;5.436;2024-03-06T12:45:15;102157.38;;;11.87;68.61
74045;BME280;62389;51.412;5.436;2024-03-06T12:47:41;102155.78;;;11.80;68.38
74045;BME280;62389;51.412;5.436;2024-03-06T12:50:07;102149.94;;;11.70;67.44
74045;BME280;62389;51.412;5.436;2024-03-06T12:52:34;102155.22;;;11.68;68.15